Svitzer Leixoes — CSXW6 — position and weather

sailwx.info

Track history (hours):
 
Tides and Currents Weather Stations Pressure Air Temp Water Temp Dewpoint Dewpoint Depression Visibility Wind Speed Wind Dir Waves Ship Positions

Svitzer Leixoes

Last reported at 2017-Oct-17 23:57 UTC. Time now 2017-Oct-18 00:21 UTC.
Position N 38°42' W 009°10'.

Length 29 m; draft 4.1 m.

Type: Tug. MMSI: 263622000.

Date/timePositionNaut miles runAvg speedWind from/ knotsBaromVisibWave heightAir tempDewpointWater temp
2017-Oct-17 23:57N 38°42' W 009°10'0 0.0
2017-Oct-17 23:29N 38°42' W 009°10'0 0.0
2017-Oct-17 22:59N 38°42' W 009°10'0 0.0
2017-Oct-17 22:25N 38°42' W 009°10'0 0.0
2017-Oct-17 21:59N 38°42' W 009°10'0 0.0
2017-Oct-17 21:30N 38°42' W 009°10'0 0.0
2017-Oct-17 21:00N 38°42' W 009°10'0 0.0
2017-Oct-17 20:30N 38°42' W 009°10'0 0.0
2017-Oct-17 20:00N 38°42' W 009°10'0 0.0
2017-Oct-17 19:30N 38°42' W 009°10'0 0.0
2017-Oct-17 18:57N 38°42' W 009°10'0 0.0
2017-Oct-17 18:27N 38°42' W 009°10'0 0.0
2017-Oct-17 17:58N 38°42' W 009°10'0 0.0
2017-Oct-17 17:27N 38°42' W 009°10'0 0.0
2017-Oct-17 17:00N 38°42' W 009°10'0 0.0
2017-Oct-17 16:27N 38°42' W 009°10'0 0.3
2017-Oct-17 16:00N 38°42' W 009°09'1 1.3
2017-Oct-17 15:30N 38°42' W 009°10'0 0.3
2017-Oct-17 14:59N 38°42' W 009°10'0 0.9
2017-Oct-17 14:30N 38°42' W 009°10'0 0.0
2017-Oct-17 13:59N 38°42' W 009°10'0 0.0
2017-Oct-17 13:30N 38°42' W 009°10'0 0.0
2017-Oct-17 12:57N 38°42' W 009°10'0 0.0
2017-Oct-17 12:30N 38°42' W 009°10'0 0.3
2017-Oct-17 12:00N 38°42' W 009°09'0 0.1
2017-Oct-17 11:30N 38°42' W 009°09'0 0.2
2017-Oct-17 11:00N 38°42' W 009°10'0 0.8
2017-Oct-17 10:30N 38°42' W 009°10'0 0.8
2017-Oct-17 09:57N 38°42' W 009°10'1 1.7
2017-Oct-17 09:29N 38°42' W 009°10'0 0.0
2017-Oct-17 09:00N 38°42' W 009°10'0 0.0
2017-Oct-17 08:29N 38°42' W 009°10'0 0.0
2017-Oct-17 08:00N 38°42' W 009°10'0 0.0
2017-Oct-17 07:30N 38°42' W 009°10'0 0.0
2017-Oct-17 06:59N 38°42' W 009°10'0 0.0
2017-Oct-17 06:29N 38°42' W 009°10'0 0.0
2017-Oct-17 05:59N 38°42' W 009°10'0 0.0
2017-Oct-17 05:26N 38°42' W 009°10'0 0.0
2017-Oct-17 04:57N 38°42' W 009°10'0 0.0
2017-Oct-17 04:30N 38°42' W 009°10'0 0.0
2017-Oct-17 04:00N 38°42' W 009°10'0 0.0
2017-Oct-17 03:28N 38°42' W 009°10'0 0.0
2017-Oct-17 03:00N 38°42' W 009°10'0 0.0
2017-Oct-17 02:30N 38°42' W 009°10'0 0.0
2017-Oct-17 01:59N 38°42' W 009°10'0 0.0
2017-Oct-17 01:30N 38°42' W 009°10'0 0.0
2017-Oct-17 00:59N 38°42' W 009°10'0 0.0
2017-Oct-17 00:30N 38°42' W 009°10'0 0.0
2017-Oct-17 00:00N 38°42' W 009°10'0 0.0
2017-Oct-16 23:29N 38°42' W 009°10'0 0.0
2017-Oct-16 23:00N 38°42' W 009°10'0 0.0
2017-Oct-16 22:29N 38°42' W 009°10'0 0.0
2017-Oct-16 21:59N 38°42' W 009°10'0 0.0
2017-Oct-16 21:29N 38°42' W 009°10'0 0.0
2017-Oct-16 21:00N 38°42' W 009°10'0 0.0
2017-Oct-16 20:30N 38°42' W 009°10'0 0.0
2017-Oct-16 19:59N 38°42' W 009°10'0 0.0
2017-Oct-16 19:28N 38°42' W 009°10'0 0.0
2017-Oct-16 18:57N 38°42' W 009°10'0 0.0
2017-Oct-16 18:30N 38°42' W 009°10'0 0.0
2017-Oct-16 18:00N 38°42' W 009°10'0 0.0
2017-Oct-16 17:28N 38°42' W 009°10'0 0.0
2017-Oct-16 16:58N 38°42' W 009°10'0 0.0
2017-Oct-16 16:29N 38°42' W 009°10'0 0.0
2017-Oct-16 16:00N 38°42' W 009°10'2 4.5
2017-Oct-16 15:30N 38°42' W 009°07'0 0.2
2017-Oct-16 15:00N 38°42' W 009°07'2 2.0
2017-Oct-16 14:00N 38°42' W 009°09'0 0.3
2017-Oct-16 13:30N 38°42' W 009°09'0 0.2
2017-Oct-16 13:00N 38°42' W 009°10'0 0.0
2017-Oct-16 12:30N 38°42' W 009°10'1 2.3
2017-Oct-16 12:00N 38°42' W 009°11'2 3.6
2017-Oct-16 11:31N 38°41' W 009°13'0 0.6
2017-Oct-16 11:00N 38°41' W 009°12'3 5.3
2017-Oct-16 10:30N 38°42' W 009°10'0 0.0
2017-Oct-16 09:59N 38°42' W 009°10'0 0.0
2017-Oct-16 09:30N 38°42' W 009°10'0 0.0
2017-Oct-16 08:58N 38°42' W 009°10'0 0.0
2017-Oct-16 08:29N 38°42' W 009°10'0 0.2
2017-Oct-16 08:01N 38°42' W 009°09'0 1.0
2017-Oct-16 07:30N 38°42' W 009°09'0 0.8
2017-Oct-16 07:00N 38°42' W 009°08'1 1.9
2017-Oct-16 06:30N 38°42' W 009°10'0 0.0
2017-Oct-16 05:56N 38°42' W 009°10'0 0.0
2017-Oct-16 05:29N 38°42' W 009°10'0 0.0
2017-Oct-16 05:00N 38°42' W 009°10'0 0.0
2017-Oct-16 04:30N 38°42' W 009°10'0 0.0
2017-Oct-16 04:00N 38°42' W 009°10'0 0.0
2017-Oct-16 03:30N 38°42' W 009°10'0 0.0
2017-Oct-16 03:00N 38°42' W 009°10'0 0.0
2017-Oct-16 02:30N 38°42' W 009°10'0 0.0
2017-Oct-16 02:00N 38°42' W 009°10'0 0.0
2017-Oct-16 01:30N 38°42' W 009°10'0 0.0
2017-Oct-16 01:00N 38°42' W 009°10'0 0.0
2017-Oct-16 00:30N 38°42' W 009°10'0 0.0
2017-Oct-16 00:00N 38°42' W 009°10'0 0.0
2017-Oct-15 23:30N 38°42' W 009°10'0 0.0
2017-Oct-15 23:00N 38°42' W 009°10'0 0.0
2017-Oct-15 22:30N 38°42' W 009°10'0 0.0
2017-Oct-15 22:00N 38°42' W 009°10'0 0.0
2017-Oct-15 21:30N 38°42' W 009°10'0 0.0
2017-Oct-15 21:00N 38°42' W 009°10'0 0.0
2017-Oct-15 20:30N 38°42' W 009°10'0 0.0
2017-Oct-15 20:00N 38°42' W 009°10'0 0.0
2017-Oct-15 19:30N 38°42' W 009°10'0 0.0
2017-Oct-15 19:00N 38°42' W 009°10'0 0.0
2017-Oct-15 18:30N 38°42' W 009°10'0 0.0
2017-Oct-15 18:00N 38°42' W 009°10'0 0.0
2017-Oct-15 17:30N 38°42' W 009°10'0 0.0
2017-Oct-15 16:59N 38°42' W 009°10'0 0.0
2017-Oct-15 16:30N 38°42' W 009°10'0 0.0
2017-Oct-15 15:59N 38°42' W 009°10'0 0.0
2017-Oct-15 15:30N 38°42' W 009°10'0 0.0
2017-Oct-15 15:00N 38°42' W 009°10'0 0.0
2017-Oct-15 14:00N 38°42' W 009°10'0 0.0
2017-Oct-15 13:30N 38°42' W 009°10'0 0.0
2017-Oct-15 13:00N 38°42' W 009°10'0 0.0
2017-Oct-15 12:30N 38°42' W 009°10'3 5.9
2017-Oct-15 12:00N 38°41' W 009°13'1 1.6
2017-Oct-15 11:30N 38°41' W 009°14'1 1.2
2017-Oct-15 11:00N 38°41' W 009°15'4 7.7
2017-Oct-15 10:29N 38°42' W 009°10'0 0.0
2017-Oct-15 10:00N 38°42' W 009°10'0 0.0
2017-Oct-15 09:29N 38°42' W 009°10'0 0.0
2017-Oct-15 09:00N 38°42' W 009°10'0 0.0
2017-Oct-15 08:27N 38°42' W 009°10'0 0.0
2017-Oct-15 07:59N 38°42' W 009°10'0 0.0
2017-Oct-15 07:25N 38°42' W 009°10'0 0.0
2017-Oct-15 06:59N 38°42' W 009°10'0 0.0
2017-Oct-15 06:26N 38°42' W 009°10'0 0.0
2017-Oct-15 06:00N 38°42' W 009°10'0 0.0
2017-Oct-15 05:29N 38°42' W 009°10'0 0.0
2017-Oct-15 05:00N 38°42' W 009°10'0 0.0
2017-Oct-15 04:30N 38°42' W 009°10'0 0.0
2017-Oct-15 03:59N 38°42' W 009°10'0 0.0
2017-Oct-15 03:30N 38°42' W 009°10'0 0.0
2017-Oct-15 02:59N 38°42' W 009°10'0 0.0
2017-Oct-15 02:28N 38°42' W 009°10'0 0.0
2017-Oct-15 02:00N 38°42' W 009°10'0 0.0
2017-Oct-15 01:30N 38°42' W 009°10'0 0.0
2017-Oct-15 00:58N 38°42' W 009°10'0 0.0
2017-Oct-15 00:30N 38°42' W 009°10'0 0.0
2017-Oct-14 23:59N 38°42' W 009°10'0 0.6
2017-Oct-14 23:30N 38°42' W 009°10'0 0.5
2017-Oct-14 22:59N 38°42' W 009°10'0 0.0
2017-Oct-14 22:26N 38°42' W 009°10'0 0.0
2017-Oct-14 21:54N 38°42' W 009°10'0 0.0
2017-Oct-14 21:30N 38°42' W 009°10'0 0.0
2017-Oct-14 21:00N 38°42' W 009°10'0 0.0
2017-Oct-14 20:30N 38°42' W 009°10'0 0.0
2017-Oct-14 19:58N 38°42' W 009°10'0 0.0
2017-Oct-14 19:30N 38°42' W 009°10'0 0.0
2017-Oct-14 18:57N 38°42' W 009°10'0 0.0
2017-Oct-14 18:28N 38°42' W 009°10'0 0.4
2017-Oct-14 18:00N 38°42' W 009°09'2 3.1
2017-Oct-14 17:30N 38°41' W 009°08'0 0.6
2017-Oct-14 17:00N 38°41' W 009°07'0 0.0
2017-Oct-14 16:30N 38°41' W 009°07'0 0.0
2017-Oct-14 16:00N 38°41' W 009°07'0 0.0
2017-Oct-14 15:30N 38°41' W 009°07'0 0.0
2017-Oct-14 15:00N 38°41' W 009°07'0 0.0
2017-Oct-14 14:30N 38°41' W 009°07'0 0.0
2017-Oct-14 14:00N 38°41' W 009°07'0 0.0
2017-Oct-14 13:30N 38°41' W 009°07'0 0.0
2017-Oct-14 13:00N 38°41' W 009°07'0 0.0
2017-Oct-14 12:30N 38°41' W 009°07'2 3.5
2017-Oct-14 11:57N 38°42' W 009°10'0 0.0
2017-Oct-14 11:29N 38°42' W 009°10'0 0.0
2017-Oct-14 10:59N 38°42' W 009°10'0 0.0
2017-Oct-14 10:30N 38°42' W 009°10'0 0.0
2017-Oct-14 10:00N 38°42' W 009°10'0 0.3
2017-Oct-14 09:29N 38°42' W 009°09'1 1.7
2017-Oct-14 09:00N 38°42' W 009°10'1 2.4
2017-Oct-14 08:30N 38°41' W 009°09'1 1.8
2017-Oct-14 08:00N 38°42' W 009°10'0 0.0
2017-Oct-14 07:30N 38°42' W 009°10'0 0.0
2017-Oct-14 07:00N 38°42' W 009°10'0 0.0
2017-Oct-14 06:30N 38°42' W 009°10'0 0.0
2017-Oct-14 05:57N 38°42' W 009°10'0 0.0
2017-Oct-14 05:28N 38°42' W 009°10'0 0.0
2017-Oct-14 05:00N 38°42' W 009°10'0 0.0
2017-Oct-14 04:30N 38°42' W 009°10'0 0.0
2017-Oct-14 04:00N 38°42' W 009°10'0 0.0
2017-Oct-14 03:30N 38°42' W 009°10'0 0.0
2017-Oct-14 03:00N 38°42' W 009°10'0 0.0
2017-Oct-14 02:30N 38°42' W 009°10'0 0.0
2017-Oct-14 02:00N 38°42' W 009°10'0 0.0
2017-Oct-14 01:30N 38°42' W 009°10'0 0.0
2017-Oct-14 01:00N 38°42' W 009°10'0 0.0
2017-Oct-14 00:30N 38°42' W 009°10'0 0.0
2017-Oct-14 00:00N 38°42' W 009°10'0 0.0
2017-Oct-13 23:30N 38°42' W 009°10'0 0.0
2017-Oct-13 23:00N 38°42' W 009°10'0 0.0
2017-Oct-13 22:30N 38°42' W 009°10'0 0.0
2017-Oct-13 22:00N 38°42' W 009°10'0 0.0
2017-Oct-13 21:30N 38°42' W 009°10'0 0.0
2017-Oct-13 21:00N 38°42' W 009°10'0 0.0
2017-Oct-13 20:30N 38°42' W 009°10'0 0.0
2017-Oct-13 20:00N 38°42' W 009°10'0 0.0
2017-Oct-13 19:30N 38°42' W 009°10'0 0.0
2017-Oct-13 19:00N 38°42' W 009°10'0 0.0
2017-Oct-13 18:30N 38°42' W 009°10'0 0.0
2017-Oct-13 18:00N 38°42' W 009°10'0 0.0
2017-Oct-13 17:30N 38°42' W 009°10'0 0.0
2017-Oct-13 17:00N 38°42' W 009°10'0 0.0
2017-Oct-13 16:30N 38°42' W 009°10'0 0.0
2017-Oct-13 16:00N 38°42' W 009°10'0 0.0
2017-Oct-13 15:30N 38°42' W 009°10'0 0.0
2017-Oct-13 15:00N 38°42' W 009°10'0 0.0
2017-Oct-13 14:30N 38°42' W 009°10'0 0.0
2017-Oct-13 13:58N 38°42' W 009°10'0 0.0
2017-Oct-13 13:30N 38°42' W 009°10'0 0.0
2017-Oct-13 13:00N 38°42' W 009°10'0 0.0
2017-Oct-13 12:30N 38°42' W 009°10'0 0.0
2017-Oct-13 12:00N 38°42' W 009°10'0 0.0
2017-Oct-13 11:30N 38°42' W 009°10'0 0.0
2017-Oct-13 11:00N 38°42' W 009°10'0 0.0
2017-Oct-13 10:30N 38°42' W 009°10'0 0.0
2017-Oct-13 10:00N 38°42' W 009°10'0 0.0
2017-Oct-13 09:30N 38°42' W 009°10'0 0.0
2017-Oct-13 08:58N 38°42' W 009°10'0 0.0
2017-Oct-13 08:30N 38°42' W 009°10'0 0.0
2017-Oct-13 08:00N 38°42' W 009°10'0 0.0
2017-Oct-13 07:30N 38°42' W 009°10'0 0.0
2017-Oct-13 06:59N 38°42' W 009°10'0 0.0
2017-Oct-13 06:30N 38°42' W 009°10'0 0.0
2017-Oct-13 05:58N 38°42' W 009°10'0 0.0
2017-Oct-13 05:30N 38°42' W 009°10'0 0.0
2017-Oct-13 05:00N 38°42' W 009°10'0 0.0
2017-Oct-13 04:30N 38°42' W 009°10'0 0.0
2017-Oct-13 04:00N 38°42' W 009°10'0 0.0
2017-Oct-13 03:29N 38°42' W 009°10'0 0.0
2017-Oct-13 02:59N 38°42' W 009°10'3 3.5
2017-Oct-13 02:14N 38°42' W 009°06'0 0.5
2017-Oct-13 01:58N 38°42' W 009°06'0 0.6
2017-Oct-13 01:29N 38°42' W 009°07'1 2.6
2017-Oct-13 01:00N 38°42' W 009°08'1 2.9
2017-Oct-13 00:31N 38°42' W 009°10'0 0.2
2017-Oct-12 23:59N 38°42' W 009°10'1 1.1
2017-Oct-12 23:29N 38°42' W 009°10'0 0.0
2017-Oct-12 22:59N 38°42' W 009°10'0 0.0
2017-Oct-12 22:30N 38°42' W 009°10'0 0.0
2017-Oct-12 22:00N 38°42' W 009°10'2 1.7
2017-Oct-12 20:59N 38°41' W 009°11'2 1.1
2017-Oct-12 19:27N 38°42' W 009°10'0 0.0
2017-Oct-12 18:59N 38°42' W 009°10'0 0.0
2017-Oct-12 18:29N 38°42' W 009°10'0 0.0
2017-Oct-12 18:00N 38°42' W 009°10'0 0.0
2017-Oct-12 17:29N 38°42' W 009°10'0 0.0
2017-Oct-12 17:00N 38°42' W 009°10'0 0.0
2017-Oct-12 16:30N 38°42' W 009°10'0 0.3
2017-Oct-12 16:00N 38°42' W 009°10'2 3.5
2017-Oct-12 15:30N 38°41' W 009°12'2 3.4
2017-Oct-12 15:00N 38°42' W 009°10'0 0.3
2017-Oct-12 14:29N 38°42' W 009°10'0 0.0
2017-Oct-12 14:00N 38°42' W 009°10'0 0.0
2017-Oct-12 13:30N 38°42' W 009°10'0 0.0
2017-Oct-12 12:58N 38°42' W 009°10'0 0.0
2017-Oct-12 12:28N 38°42' W 009°10'0 0.0
2017-Oct-12 12:00N 38°42' W 009°10'0 0.0
2017-Oct-12 11:27N 38°42' W 009°10'0 0.0
2017-Oct-12 11:00N 38°42' W 009°10'0 0.0
2017-Oct-12 10:30N 38°42' W 009°10'0 0.0
2017-Oct-12 09:48N 38°42' W 009°10'0 0.0
2017-Oct-12 09:24N 38°42' W 009°10'0 0.0
2017-Oct-12 09:00N 38°42' W 009°10'0 0.0
2017-Oct-12 08:30N 38°42' W 009°10'2 3.7
2017-Oct-12 08:00N 38°42' W 009°12'2 4.2
2017-Oct-12 07:30N 38°41' W 009°14'1 1.7
2017-Oct-12 07:00N 38°41' W 009°15'3 6.7
2017-Oct-12 06:30N 38°41' W 009°11'1 2.9
2017-Oct-12 06:00N 38°42' W 009°10'0 0.0
2017-Oct-12 05:28N 38°42' W 009°10'0 0.0
2017-Oct-12 05:00N 38°42' W 009°10'0 0.0
2017-Oct-12 04:28N 38°42' W 009°10'0 0.0
2017-Oct-12 03:59N 38°42' W 009°10'0 0.0
2017-Oct-12 03:28N 38°42' W 009°10'0 0.0
2017-Oct-12 03:00N 38°42' W 009°10'0 0.0
2017-Oct-12 02:23N 38°42' W 009°10'0 0.0
2017-Oct-12 02:00N 38°42' W 009°10'0 0.0
2017-Oct-12 01:22N 38°42' W 009°10'0 0.0
2017-Oct-12 01:00N 38°42' W 009°10'0 0.0
2017-Oct-12 00:28N 38°42' W 009°10'0 0.0
2017-Oct-11 23:58N 38°42' W 009°10'0 0.1
2017-Oct-11 23:30N 38°42' W 009°10'3 6.3
2017-Oct-11 23:00N 38°44' W 009°06'1 1.1
2017-Oct-11 22:30N 38°44' W 009°06'0 0.1
2017-Oct-11 21:48N 38°44' W 009°06'0 0.6
2017-Oct-11 21:26N 38°44' W 009°06'3 6.6
2017-Oct-11 21:00N 38°42' W 009°09'1 1.3
2017-Oct-11 20:30N 38°42' W 009°10'0 0.0
2017-Oct-11 20:00N 38°42' W 009°10'0 0.0
2017-Oct-11 19:30N 38°42' W 009°10'0 0.0
2017-Oct-11 19:00N 38°42' W 009°10'0 0.0
2017-Oct-11 18:30N 38°42' W 009°10'0 0.0
2017-Oct-11 18:00N 38°42' W 009°10'0 0.0
2017-Oct-11 17:30N 38°42' W 009°10'0 0.0
2017-Oct-11 17:00N 38°42' W 009°10'0 0.0
2017-Oct-11 00:00N 38°42' W 009°10'0 0.0
2017-Oct-10 23:30N 38°42' W 009°10'0 0.0
2017-Oct-10 22:59N 38°42' W 009°10'0 0.0
2017-Oct-10 22:30N 38°42' W 009°10'0 0.0
2017-Oct-10 22:00N 38°42' W 009°10'0 0.0
2017-Oct-10 21:29N 38°42' W 009°10'0 0.0
2017-Oct-10 21:00N 38°42' W 009°10'3 5.3
2017-Oct-10 20:30N 38°43' W 009°07'3 5.8
2017-Oct-10 20:00N 38°42' W 009°10'1 1.1
2017-Oct-10 19:30N 38°42' W 009°10'1 1.7
2017-Oct-10 19:00N 38°42' W 009°09'1 1.0
2017-Oct-10 18:30N 38°42' W 009°10'0 0.0
2017-Oct-10 18:00N 38°42' W 009°10'0 0.7
2017-Oct-10 17:30N 38°42' W 009°10'0 0.0
2017-Oct-10 17:00N 38°42' W 009°10'0 0.2
2017-Oct-10 16:30N 38°42' W 009°10'0 0.2
2017-Oct-10 16:00N 38°42' W 009°10'0 0.0
2017-Oct-10 15:29N 38°42' W 009°10'0 0.0
2017-Oct-10 15:00N 38°42' W 009°10'0 0.1
2017-Oct-10 14:00N 38°42' W 009°09'3 5.6
2017-Oct-10 13:30N 38°44' W 009°06'0 0.8
2017-Oct-10 13:00N 38°43' W 009°06'3 5.6
2017-Oct-10 12:30N 38°42' W 009°10'0 0.0
2017-Oct-10 12:00N 38°42' W 009°10'0 0.8
2017-Oct-10 11:30N 38°42' W 009°10'1 2.3
2017-Oct-10 11:00N 38°42' W 009°11'1 1.9
2017-Oct-10 10:30N 38°42' W 009°10'0 0.5
2017-Oct-10 10:00N 38°42' W 009°10'1 1.1
2017-Oct-10 09:30N 38°42' W 009°10'0 0.0
2017-Oct-10 09:00N 38°42' W 009°10'0 0.0
2017-Oct-10 08:30N 38°42' W 009°10'0 0.0
2017-Oct-10 08:00N 38°42' W 009°10'0 0.0
2017-Oct-10 07:30N 38°42' W 009°10'0 0.0
2017-Oct-10 07:00N 38°42' W 009°10'0 0.0
2017-Oct-10 06:30N 38°42' W 009°10'0 0.0
2017-Oct-10 06:00N 38°42' W 009°10'0 0.0
2017-Oct-10 05:30N 38°42' W 009°10'0 0.0
2017-Oct-10 05:00N 38°42' W 009°10'0 0.0
2017-Oct-10 04:30N 38°42' W 009°10'0 0.0
2017-Oct-10 04:00N 38°42' W 009°10'0 0.0
2017-Oct-10 03:30N 38°42' W 009°10'0 0.0
2017-Oct-10 03:00N 38°42' W 009°10'0 0.0
2017-Oct-10 02:30N 38°42' W 009°10'0 0.0
2017-Oct-10 02:00N 38°42' W 009°10'0 0.0
2017-Oct-10 01:30N 38°42' W 009°10'0 0.0
2017-Oct-10 01:00N 38°42' W 009°10'0 0.0
2017-Oct-10 00:30N 38°42' W 009°10'0 0.0
2017-Oct-10 00:00N 38°42' W 009°10'0 0.0
2017-Oct-09 23:30N 38°42' W 009°10'0 0.0
2017-Oct-09 23:00N 38°42' W 009°10'0 0.0
2017-Oct-09 22:30N 38°42' W 009°10'0 0.0
2017-Oct-09 22:00N 38°42' W 009°10'0 0.0
2017-Oct-09 21:30N 38°42' W 009°10'0 0.0
2017-Oct-09 21:00N 38°42' W 009°10'0 0.0
2017-Oct-09 20:30N 38°42' W 009°10'0 0.0
2017-Oct-09 20:00N 38°42' W 009°10'0 0.0
2017-Oct-09 19:30N 38°42' W 009°10'0 0.0
2017-Oct-09 19:00N 38°42' W 009°10'0 0.0
2017-Oct-09 18:30N 38°42' W 009°10'0 0.0
2017-Oct-09 18:00N 38°42' W 009°10'0 0.0
2017-Oct-09 17:30N 38°42' W 009°10'0 0.0
2017-Oct-09 17:00N 38°42' W 009°10'0 0.0
2017-Oct-09 16:30N 38°42' W 009°10'0 0.0
2017-Oct-09 16:00N 38°42' W 009°10'0 0.0
2017-Oct-09 15:30N 38°42' W 009°10'0 0.0
2017-Oct-09 15:00N 38°42' W 009°10'0 0.0
2017-Oct-09 14:29N 38°42' W 009°10'0 0.0
2017-Oct-09 14:00N 38°42' W 009°10'0 0.0
2017-Oct-09 13:30N 38°42' W 009°10'0 0.0
2017-Oct-09 13:00N 38°42' W 009°10'0 0.0
2017-Oct-09 12:30N 38°42' W 009°10'0 0.0
2017-Oct-09 12:00N 38°42' W 009°10'0 0.0
2017-Oct-09 11:30N 38°42' W 009°10'0 0.0
2017-Oct-09 11:00N 38°42' W 009°10'0 0.0
2017-Oct-09 10:30N 38°42' W 009°10'0 0.0
2017-Oct-09 10:00N 38°42' W 009°10'0 0.0
2017-Oct-09 09:30N 38°42' W 009°10'0 0.0
2017-Oct-09 09:00N 38°42' W 009°10'0 0.0
2017-Oct-09 08:30N 38°42' W 009°10'0 0.0
2017-Oct-09 08:00N 38°42' W 009°10'0 0.0
2017-Oct-09 07:30N 38°42' W 009°10'0 0.1
2017-Oct-09 07:00N 38°42' W 009°10'1 1.1
2017-Oct-09 06:30N 38°42' W 009°10'1 1.1
2017-Oct-09 06:00N 38°42' W 009°11'1 2.1
2017-Oct-09 05:30N 38°42' W 009°10'0 0.0
2017-Oct-09 05:00N 38°42' W 009°10'1 1.4
2017-Oct-09 04:30N 38°42' W 009°10'0 0.5
2017-Oct-09 04:00N 38°42' W 009°10'0 0.9
2017-Oct-09 03:30N 38°42' W 009°10'0 0.0
2017-Oct-09 03:00N 38°42' W 009°10'0 0.0
2017-Oct-09 02:30N 38°42' W 009°10'0 0.0
2017-Oct-09 02:00N 38°42' W 009°10'0 0.0
2017-Oct-09 01:30N 38°42' W 009°10'0 0.0
2017-Oct-09 01:00N 38°42' W 009°10'0 0.0
2017-Oct-09 00:30N 38°42' W 009°10'0 0.0
2017-Oct-09 00:00N 38°42' W 009°10'0 0.0
2017-Oct-08 23:30N 38°42' W 009°10'0 0.0
2017-Oct-08 23:00N 38°42' W 009°10'0 0.0
2017-Oct-08 22:30N 38°42' W 009°10'0 0.0
2017-Oct-08 22:00N 38°42' W 009°10'0 0.0
2017-Oct-08 21:30N 38°42' W 009°10'0 0.0
2017-Oct-08 21:00N 38°42' W 009°10'0 0.0
2017-Oct-08 20:30N 38°42' W 009°10'0 0.0
2017-Oct-08 20:00N 38°42' W 009°10'0 0.0
2017-Oct-08 19:30N 38°42' W 009°10'0 0.8
2017-Oct-08 19:00N 38°42' W 009°10'0 0.4
2017-Oct-08 18:30N 38°42' W 009°10'2 3.2
2017-Oct-08 18:00N 38°40' W 009°09'0 0.3
2017-Oct-08 17:30N 38°40' W 009°09'0 0.4
2017-Oct-08 17:00N 38°40' W 009°09'1 2.4
2017-Oct-08 16:30N 38°42' W 009°08'1 2.1
2017-Oct-08 16:00N 38°42' W 009°10'0 0.0
2017-Oct-08 15:30N 38°42' W 009°10'0 0.0
2017-Oct-08 15:00N 38°42' W 009°10'0 0.0
2017-Oct-08 14:29N 38°42' W 009°10'0 0.0
2017-Oct-08 14:00N 38°42' W 009°10'0 0.0
2017-Oct-08 13:23N 38°42' W 009°10'0 1.3
2017-Oct-08 13:00N 38°42' W 009°10'0 0.1
2017-Oct-08 12:31N 38°42' W 009°10'1 2.2
2017-Oct-08 12:00N 38°41' W 009°11'2 3.4
2017-Oct-08 11:30N 38°41' W 009°14'2 4.2
2017-Oct-08 11:00N 38°41' W 009°16'2 4.3
2017-Oct-08 10:30N 38°40' W 009°19'2 3.1
2017-Oct-08 10:00N 38°39' W 009°20'2 3.1
2017-Oct-08 09:30N 38°38' W 009°22'2 3.3
2017-Oct-08 09:00N 38°37' W 009°23'2 3.7
2017-Oct-08 08:30N 38°37' W 009°25'1 2.0
2017-Oct-08 08:00N 38°38' W 009°26'0 0.6
2017-Oct-08 07:30N 38°38' W 009°25'1 1.2
2017-Oct-08 07:00N 38°38' W 009°25'0 0.8
2017-Oct-08 06:30N 38°38' W 009°25'1 1.9
2017-Oct-08 06:00N 38°39' W 009°26'1 2.5
2017-Oct-08 05:30N 38°40' W 009°27'1 2.0
2017-Oct-08 05:00N 38°39' W 009°28'2 3.2
2017-Oct-08 04:30N 38°38' W 009°29'2 3.1
2017-Oct-08 04:01N 38°38' W 009°31'2 3.3
2017-Oct-08 03:30N 38°37' W 009°33'1 2.9
2017-Oct-08 03:00N 38°37' W 009°35'2 3.2
2017-Oct-08 02:30N 38°36' W 009°37'2 3.1
2017-Oct-08 02:00N 38°35' W 009°39'1 2.7
2017-Oct-08 01:30N 38°35' W 009°40'1 2.0
2017-Oct-08 01:00N 38°35' W 009°41'2 3.8
2017-Oct-08 00:31N 38°34' W 009°44'2 3.5
2017-Oct-08 00:00N 38°33' W 009°45'  
Track history (hours):
 
Tides and Currents Weather Stations Pressure Air Temp Water Temp Dewpoint Dewpoint Depression Visibility Wind Speed Wind Dir Waves Ship Positions

Svitzer Leixoes

Last reported at 2017-Oct-17 23:57 UTC. Time now 2017-Oct-18 00:21 UTC.
Position N 38°42' W 009°10'.

Length 29 m; draft 4.1 m.

Type: Tug. MMSI: 263622000.

Date/timePositionNaut miles runAvg speedWind from/ knotsBaromVisibWave heightAir tempDewpointWater temp
2017-Oct-17 23:57N 38°42' W 009°10'0 0.0
2017-Oct-17 23:29N 38°42' W 009°10'0 0.0
2017-Oct-17 22:59N 38°42' W 009°10'0 0.0
2017-Oct-17 22:25N 38°42' W 009°10'0 0.0
2017-Oct-17 21:59N 38°42' W 009°10'0 0.0
2017-Oct-17 21:30N 38°42' W 009°10'0 0.0
2017-Oct-17 21:00N 38°42' W 009°10'0 0.0
2017-Oct-17 20:30N 38°42' W 009°10'0 0.0
2017-Oct-17 20:00N 38°42' W 009°10'0 0.0
2017-Oct-17 19:30N 38°42' W 009°10'0 0.0
2017-Oct-17 18:57N 38°42' W 009°10'0 0.0
2017-Oct-17 18:27N 38°42' W 009°10'0 0.0
2017-Oct-17 17:58N 38°42' W 009°10'0 0.0
2017-Oct-17 17:27N 38°42' W 009°10'0 0.0
2017-Oct-17 17:00N 38°42' W 009°10'0 0.0
2017-Oct-17 16:27N 38°42' W 009°10'0 0.3
2017-Oct-17 16:00N 38°42' W 009°09'1 1.3
2017-Oct-17 15:30N 38°42' W 009°10'0 0.3
2017-Oct-17 14:59N 38°42' W 009°10'0 0.9
2017-Oct-17 14:30N 38°42' W 009°10'0 0.0
2017-Oct-17 13:59N 38°42' W 009°10'0 0.0
2017-Oct-17 13:30N 38°42' W 009°10'0 0.0
2017-Oct-17 12:57N 38°42' W 009°10'0 0.0
2017-Oct-17 12:30N 38°42' W 009°10'0 0.3
2017-Oct-17 12:00N 38°42' W 009°09'0 0.1
2017-Oct-17 11:30N 38°42' W 009°09'0 0.2
2017-Oct-17 11:00N 38°42' W 009°10'0 0.8
2017-Oct-17 10:30N 38°42' W 009°10'0 0.8
2017-Oct-17 09:57N 38°42' W 009°10'1 1.7
2017-Oct-17 09:29N 38°42' W 009°10'0 0.0
2017-Oct-17 09:00N 38°42' W 009°10'0 0.0
2017-Oct-17 08:29N 38°42' W 009°10'0 0.0
2017-Oct-17 08:00N 38°42' W 009°10'0 0.0
2017-Oct-17 07:30N 38°42' W 009°10'0 0.0
2017-Oct-17 06:59N 38°42' W 009°10'0 0.0
2017-Oct-17 06:29N 38°42' W 009°10'0 0.0
2017-Oct-17 05:59N 38°42' W 009°10'0 0.0
2017-Oct-17 05:26N 38°42' W 009°10'0 0.0
2017-Oct-17 04:57N 38°42' W 009°10'0 0.0
2017-Oct-17 04:30N 38°42' W 009°10'0 0.0
2017-Oct-17 04:00N 38°42' W 009°10'0 0.0
2017-Oct-17 03:28N 38°42' W 009°10'0 0.0
2017-Oct-17 03:00N 38°42' W 009°10'0 0.0
2017-Oct-17 02:30N 38°42' W 009°10'0 0.0
2017-Oct-17 01:59N 38°42' W 009°10'0 0.0
2017-Oct-17 01:30N 38°42' W 009°10'0 0.0
2017-Oct-17 00:59N 38°42' W 009°10'0 0.0
2017-Oct-17 00:30N 38°42' W 009°10'0 0.0
2017-Oct-17 00:00N 38°42' W 009°10'0 0.0
2017-Oct-16 23:29N 38°42' W 009°10'0 0.0
2017-Oct-16 23:00N 38°42' W 009°10'0 0.0
2017-Oct-16 22:29N 38°42' W 009°10'0 0.0
2017-Oct-16 21:59N 38°42' W 009°10'0 0.0
2017-Oct-16 21:29N 38°42' W 009°10'0 0.0
2017-Oct-16 21:00N 38°42' W 009°10'0 0.0
2017-Oct-16 20:30N 38°42' W 009°10'0 0.0
2017-Oct-16 19:59N 38°42' W 009°10'0 0.0
2017-Oct-16 19:28N 38°42' W 009°10'0 0.0
2017-Oct-16 18:57N 38°42' W 009°10'0 0.0
2017-Oct-16 18:30N 38°42' W 009°10'0 0.0
2017-Oct-16 18:00N 38°42' W 009°10'0 0.0
2017-Oct-16 17:28N 38°42' W 009°10'0 0.0
2017-Oct-16 16:58N 38°42' W 009°10'0 0.0
2017-Oct-16 16:29N 38°42' W 009°10'0 0.0
2017-Oct-16 16:00N 38°42' W 009°10'2 4.5
2017-Oct-16 15:30N 38°42' W 009°07'0 0.2
2017-Oct-16 15:00N 38°42' W 009°07'2 2.0
2017-Oct-16 14:00N 38°42' W 009°09'0 0.3
2017-Oct-16 13:30N 38°42' W 009°09'0 0.2
2017-Oct-16 13:00N 38°42' W 009°10'0 0.0
2017-Oct-16 12:30N 38°42' W 009°10'1 2.3
2017-Oct-16 12:00N 38°42' W 009°11'2 3.6
2017-Oct-16 11:31N 38°41' W 009°13'0 0.6
2017-Oct-16 11:00N 38°41' W 009°12'3 5.3
2017-Oct-16 10:30N 38°42' W 009°10'0 0.0
2017-Oct-16 09:59N 38°42' W 009°10'0 0.0
2017-Oct-16 09:30N 38°42' W 009°10'0 0.0
2017-Oct-16 08:58N 38°42' W 009°10'0 0.0
2017-Oct-16 08:29N 38°42' W 009°10'0 0.2
2017-Oct-16 08:01N 38°42' W 009°09'0 1.0
2017-Oct-16 07:30N 38°42' W 009°09'0 0.8
2017-Oct-16 07:00N 38°42' W 009°08'1 1.9
2017-Oct-16 06:30N 38°42' W 009°10'0 0.0
2017-Oct-16 05:56N 38°42' W 009°10'0 0.0
2017-Oct-16 05:29N 38°42' W 009°10'0 0.0
2017-Oct-16 05:00N 38°42' W 009°10'0 0.0
2017-Oct-16 04:30N 38°42' W 009°10'0 0.0
2017-Oct-16 04:00N 38°42' W 009°10'0 0.0
2017-Oct-16 03:30N 38°42' W 009°10'0 0.0
2017-Oct-16 03:00N 38°42' W 009°10'0 0.0
2017-Oct-16 02:30N 38°42' W 009°10'0 0.0
2017-Oct-16 02:00N 38°42' W 009°10'0 0.0
2017-Oct-16 01:30N 38°42' W 009°10'0 0.0
2017-Oct-16 01:00N 38°42' W 009°10'0 0.0
2017-Oct-16 00:30N 38°42' W 009°10'0 0.0
2017-Oct-16 00:00N 38°42' W 009°10'0 0.0
2017-Oct-15 23:30N 38°42' W 009°10'0 0.0
2017-Oct-15 23:00N 38°42' W 009°10'0 0.0
2017-Oct-15 22:30N 38°42' W 009°10'0 0.0
2017-Oct-15 22:00N 38°42' W 009°10'0 0.0
2017-Oct-15 21:30N 38°42' W 009°10'0 0.0
2017-Oct-15 21:00N 38°42' W 009°10'0 0.0
2017-Oct-15 20:30N 38°42' W 009°10'0 0.0
2017-Oct-15 20:00N 38°42' W 009°10'0 0.0
2017-Oct-15 19:30N 38°42' W 009°10'0 0.0
2017-Oct-15 19:00N 38°42' W 009°10'0 0.0
2017-Oct-15 18:30N 38°42' W 009°10'0 0.0
2017-Oct-15 18:00N 38°42' W 009°10'0 0.0
2017-Oct-15 17:30N 38°42' W 009°10'0 0.0
2017-Oct-15 16:59N 38°42' W 009°10'0 0.0
2017-Oct-15 16:30N 38°42' W 009°10'0 0.0
2017-Oct-15 15:59N 38°42' W 009°10'0 0.0
2017-Oct-15 15:30N 38°42' W 009°10'0 0.0
2017-Oct-15 15:00N 38°42' W 009°10'0 0.0
2017-Oct-15 14:00N 38°42' W 009°10'0 0.0
2017-Oct-15 13:30N 38°42' W 009°10'0 0.0
2017-Oct-15 13:00N 38°42' W 009°10'0 0.0
2017-Oct-15 12:30N 38°42' W 009°10'3 5.9
2017-Oct-15 12:00N 38°41' W 009°13'1 1.6
2017-Oct-15 11:30N 38°41' W 009°14'1 1.2
2017-Oct-15 11:00N 38°41' W 009°15'4 7.7
2017-Oct-15 10:29N 38°42' W 009°10'0 0.0
2017-Oct-15 10:00N 38°42' W 009°10'0 0.0
2017-Oct-15 09:29N 38°42' W 009°10'0 0.0
2017-Oct-15 09:00N 38°42' W 009°10'0 0.0
2017-Oct-15 08:27N 38°42' W 009°10'0 0.0
2017-Oct-15 07:59N 38°42' W 009°10'0 0.0
2017-Oct-15 07:25N 38°42' W 009°10'0 0.0
2017-Oct-15 06:59N 38°42' W 009°10'0 0.0
2017-Oct-15 06:26N 38°42' W 009°10'0 0.0
2017-Oct-15 06:00N 38°42' W 009°10'0 0.0
2017-Oct-15 05:29N 38°42' W 009°10'0 0.0
2017-Oct-15 05:00N 38°42' W 009°10'0 0.0
2017-Oct-15 04:30N 38°42' W 009°10'0 0.0
2017-Oct-15 03:59N 38°42' W 009°10'0 0.0
2017-Oct-15 03:30N 38°42' W 009°10'0 0.0
2017-Oct-15 02:59N 38°42' W 009°10'0 0.0
2017-Oct-15 02:28N 38°42' W 009°10'0 0.0
2017-Oct-15 02:00N 38°42' W 009°10'0 0.0
2017-Oct-15 01:30N 38°42' W 009°10'0 0.0
2017-Oct-15 00:58N 38°42' W 009°10'0 0.0
2017-Oct-15 00:30N 38°42' W 009°10'0 0.0
2017-Oct-14 23:59N 38°42' W 009°10'0 0.6
2017-Oct-14 23:30N 38°42' W 009°10'0 0.5
2017-Oct-14 22:59N 38°42' W 009°10'0 0.0
2017-Oct-14 22:26N 38°42' W 009°10'0 0.0
2017-Oct-14 21:54N 38°42' W 009°10'0 0.0
2017-Oct-14 21:30N 38°42' W 009°10'0 0.0
2017-Oct-14 21:00N 38°42' W 009°10'0 0.0
2017-Oct-14 20:30N 38°42' W 009°10'0 0.0
2017-Oct-14 19:58N 38°42' W 009°10'0 0.0
2017-Oct-14 19:30N 38°42' W 009°10'0 0.0
2017-Oct-14 18:57N 38°42' W 009°10'0 0.0
2017-Oct-14 18:28N 38°42' W 009°10'0 0.4
2017-Oct-14 18:00N 38°42' W 009°09'2 3.1
2017-Oct-14 17:30N 38°41' W 009°08'0 0.6
2017-Oct-14 17:00N 38°41' W 009°07'0 0.0
2017-Oct-14 16:30N 38°41' W 009°07'0 0.0
2017-Oct-14 16:00N 38°41' W 009°07'0 0.0
2017-Oct-14 15:30N 38°41' W 009°07'0 0.0
2017-Oct-14 15:00N 38°41' W 009°07'0 0.0
2017-Oct-14 14:30N 38°41' W 009°07'0 0.0
2017-Oct-14 14:00N 38°41' W 009°07'0 0.0
2017-Oct-14 13:30N 38°41' W 009°07'0 0.0
2017-Oct-14 13:00N 38°41' W 009°07'0 0.0
2017-Oct-14 12:30N 38°41' W 009°07'2 3.5
2017-Oct-14 11:57N 38°42' W 009°10'0 0.0
2017-Oct-14 11:29N 38°42' W 009°10'0 0.0
2017-Oct-14 10:59N 38°42' W 009°10'0 0.0
2017-Oct-14 10:30N 38°42' W 009°10'0 0.0
2017-Oct-14 10:00N 38°42' W 009°10'0 0.3
2017-Oct-14 09:29N 38°42' W 009°09'1 1.7
2017-Oct-14 09:00N 38°42' W 009°10'1 2.4
2017-Oct-14 08:30N 38°41' W 009°09'1 1.8
2017-Oct-14 08:00N 38°42' W 009°10'0 0.0
2017-Oct-14 07:30N 38°42' W 009°10'0 0.0
2017-Oct-14 07:00N 38°42' W 009°10'0 0.0
2017-Oct-14 06:30N 38°42' W 009°10'0 0.0
2017-Oct-14 05:57N 38°42' W 009°10'0 0.0
2017-Oct-14 05:28N 38°42' W 009°10'0 0.0
2017-Oct-14 05:00N 38°42' W 009°10'0 0.0
2017-Oct-14 04:30N 38°42' W 009°10'0 0.0
2017-Oct-14 04:00N 38°42' W 009°10'0 0.0
2017-Oct-14 03:30N 38°42' W 009°10'0 0.0
2017-Oct-14 03:00N 38°42' W 009°10'0 0.0
2017-Oct-14 02:30N 38°42' W 009°10'0 0.0
2017-Oct-14 02:00N 38°42' W 009°10'0 0.0
2017-Oct-14 01:30N 38°42' W 009°10'0 0.0
2017-Oct-14 01:00N 38°42' W 009°10'0 0.0
2017-Oct-14 00:30N 38°42' W 009°10'0 0.0
2017-Oct-14 00:00N 38°42' W 009°10'0 0.0
2017-Oct-13 23:30N 38°42' W 009°10'0 0.0
2017-Oct-13 23:00N 38°42' W 009°10'0 0.0
2017-Oct-13 22:30N 38°42' W 009°10'0 0.0
2017-Oct-13 22:00N 38°42' W 009°10'0 0.0
2017-Oct-13 21:30N 38°42' W 009°10'0 0.0
2017-Oct-13 21:00N 38°42' W 009°10'0 0.0
2017-Oct-13 20:30N 38°42' W 009°10'0 0.0
2017-Oct-13 20:00N 38°42' W 009°10'0 0.0
2017-Oct-13 19:30N 38°42' W 009°10'0 0.0
2017-Oct-13 19:00N 38°42' W 009°10'0 0.0
2017-Oct-13 18:30N 38°42' W 009°10'0 0.0
2017-Oct-13 18:00N 38°42' W 009°10'0 0.0
2017-Oct-13 17:30N 38°42' W 009°10'0 0.0
2017-Oct-13 17:00N 38°42' W 009°10'0 0.0
2017-Oct-13 16:30N 38°42' W 009°10'0 0.0
2017-Oct-13 16:00N 38°42' W 009°10'0 0.0
2017-Oct-13 15:30N 38°42' W 009°10'0 0.0
2017-Oct-13 15:00N 38°42' W 009°10'0 0.0
2017-Oct-13 14:30N 38°42' W 009°10'0 0.0
2017-Oct-13 13:58N 38°42' W 009°10'0 0.0
2017-Oct-13 13:30N 38°42' W 009°10'0 0.0
2017-Oct-13 13:00N 38°42' W 009°10'0 0.0
2017-Oct-13 12:30N 38°42' W 009°10'0 0.0
2017-Oct-13 12:00N 38°42' W 009°10'0 0.0
2017-Oct-13 11:30N 38°42' W 009°10'0 0.0
2017-Oct-13 11:00N 38°42' W 009°10'0 0.0
2017-Oct-13 10:30N 38°42' W 009°10'0 0.0
2017-Oct-13 10:00N 38°42' W 009°10'0 0.0
2017-Oct-13 09:30N 38°42' W 009°10'0 0.0
2017-Oct-13 08:58N 38°42' W 009°10'0 0.0
2017-Oct-13 08:30N 38°42' W 009°10'0 0.0
2017-Oct-13 08:00N 38°42' W 009°10'0 0.0
2017-Oct-13 07:30N 38°42' W 009°10'0 0.0
2017-Oct-13 06:59N 38°42' W 009°10'0 0.0
2017-Oct-13 06:30N 38°42' W 009°10'0 0.0
2017-Oct-13 05:58N 38°42' W 009°10'0 0.0
2017-Oct-13 05:30N 38°42' W 009°10'0 0.0
2017-Oct-13 05:00N 38°42' W 009°10'0 0.0
2017-Oct-13 04:30N 38°42' W 009°10'0 0.0
2017-Oct-13 04:00N 38°42' W 009°10'0 0.0
2017-Oct-13 03:29N 38°42' W 009°10'0 0.0
2017-Oct-13 02:59N 38°42' W 009°10'3 3.5
2017-Oct-13 02:14N 38°42' W 009°06'0 0.5
2017-Oct-13 01:58N 38°42' W 009°06'0 0.6
2017-Oct-13 01:29N 38°42' W 009°07'1 2.6
2017-Oct-13 01:00N 38°42' W 009°08'1 2.9
2017-Oct-13 00:31N 38°42' W 009°10'0 0.2
2017-Oct-12 23:59N 38°42' W 009°10'1 1.1
2017-Oct-12 23:29N 38°42' W 009°10'0 0.0
2017-Oct-12 22:59N 38°42' W 009°10'0 0.0
2017-Oct-12 22:30N 38°42' W 009°10'0 0.0
2017-Oct-12 22:00N 38°42' W 009°10'2 1.7
2017-Oct-12 20:59N 38°41' W 009°11'2 1.1
2017-Oct-12 19:27N 38°42' W 009°10'0 0.0
2017-Oct-12 18:59N 38°42' W 009°10'0 0.0
2017-Oct-12 18:29N 38°42' W 009°10'0 0.0
2017-Oct-12 18:00N 38°42' W 009°10'0 0.0
2017-Oct-12 17:29N 38°42' W 009°10'0 0.0
2017-Oct-12 17:00N 38°42' W 009°10'0 0.0
2017-Oct-12 16:30N 38°42' W 009°10'0 0.3
2017-Oct-12 16:00N 38°42' W 009°10'2 3.5
2017-Oct-12 15:30N 38°41' W 009°12'2 3.4
2017-Oct-12 15:00N 38°42' W 009°10'0 0.3
2017-Oct-12 14:29N 38°42' W 009°10'0 0.0
2017-Oct-12 14:00N 38°42' W 009°10'0 0.0
2017-Oct-12 13:30N 38°42' W 009°10'0 0.0
2017-Oct-12 12:58N 38°42' W 009°10'0 0.0
2017-Oct-12 12:28N 38°42' W 009°10'0 0.0
2017-Oct-12 12:00N 38°42' W 009°10'0 0.0
2017-Oct-12 11:27N 38°42' W 009°10'0 0.0
2017-Oct-12 11:00N 38°42' W 009°10'0 0.0
2017-Oct-12 10:30N 38°42' W 009°10'0 0.0
2017-Oct-12 09:48N 38°42' W 009°10'0 0.0
2017-Oct-12 09:24N 38°42' W 009°10'0 0.0
2017-Oct-12 09:00N 38°42' W 009°10'0 0.0
2017-Oct-12 08:30N 38°42' W 009°10'2 3.7
2017-Oct-12 08:00N 38°42' W 009°12'2 4.2
2017-Oct-12 07:30N 38°41' W 009°14'1 1.7
2017-Oct-12 07:00N 38°41' W 009°15'3 6.7
2017-Oct-12 06:30N 38°41' W 009°11'1 2.9
2017-Oct-12 06:00N 38°42' W 009°10'0 0.0
2017-Oct-12 05:28N 38°42' W 009°10'0 0.0
2017-Oct-12 05:00N 38°42' W 009°10'0 0.0
2017-Oct-12 04:28N 38°42' W 009°10'0 0.0
2017-Oct-12 03:59N 38°42' W 009°10'0 0.0
2017-Oct-12 03:28N 38°42' W 009°10'0 0.0
2017-Oct-12 03:00N 38°42' W 009°10'0 0.0
2017-Oct-12 02:23N 38°42' W 009°10'0 0.0
2017-Oct-12 02:00N 38°42' W 009°10'0 0.0
2017-Oct-12 01:22N 38°42' W 009°10'0 0.0
2017-Oct-12 01:00N 38°42' W 009°10'0 0.0
2017-Oct-12 00:28N 38°42' W 009°10'0 0.0
2017-Oct-11 23:58N 38°42' W 009°10'0 0.1
2017-Oct-11 23:30N 38°42' W 009°10'3 6.3
2017-Oct-11 23:00N 38°44' W 009°06'1 1.1
2017-Oct-11 22:30N 38°44' W 009°06'0 0.1
2017-Oct-11 21:48N 38°44' W 009°06'0 0.6
2017-Oct-11 21:26N 38°44' W 009°06'3 6.6
2017-Oct-11 21:00N 38°42' W 009°09'1 1.3
2017-Oct-11 20:30N 38°42' W 009°10'0 0.0
2017-Oct-11 20:00N 38°42' W 009°10'0 0.0
2017-Oct-11 19:30N 38°42' W 009°10'0 0.0
2017-Oct-11 19:00N 38°42' W 009°10'0 0.0
2017-Oct-11 18:30N 38°42' W 009°10'0 0.0
2017-Oct-11 18:00N 38°42' W 009°10'0 0.0
2017-Oct-11 17:30N 38°42' W 009°10'0 0.0
2017-Oct-11 17:00N 38°42' W 009°10'0 0.0
2017-Oct-11 00:00N 38°42' W 009°10'0 0.0
2017-Oct-10 23:30N 38°42' W 009°10'0 0.0
2017-Oct-10 22:59N 38°42' W 009°10'0 0.0
2017-Oct-10 22:30N 38°42' W 009°10'0 0.0
2017-Oct-10 22:00N 38°42' W 009°10'0 0.0
2017-Oct-10 21:29N 38°42' W 009°10'0 0.0
2017-Oct-10 21:00N 38°42' W 009°10'3 5.3
2017-Oct-10 20:30N 38°43' W 009°07'3 5.8
2017-Oct-10 20:00N 38°42' W 009°10'1 1.1
2017-Oct-10 19:30N 38°42' W 009°10'1 1.7
2017-Oct-10 19:00N 38°42' W 009°09'1 1.0
2017-Oct-10 18:30N 38°42' W 009°10'0 0.0
2017-Oct-10 18:00N 38°42' W 009°10'0 0.7
2017-Oct-10 17:30N 38°42' W 009°10'0 0.0
2017-Oct-10 17:00N 38°42' W 009°10'0 0.2
2017-Oct-10 16:30N 38°42' W 009°10'0 0.2
2017-Oct-10 16:00N 38°42' W 009°10'0 0.0
2017-Oct-10 15:29N 38°42' W 009°10'0 0.0
2017-Oct-10 15:00N 38°42' W 009°10'0 0.1
2017-Oct-10 14:00N 38°42' W 009°09'3 5.6
2017-Oct-10 13:30N 38°44' W 009°06'0 0.8
2017-Oct-10 13:00N 38°43' W 009°06'3 5.6
2017-Oct-10 12:30N 38°42' W 009°10'0 0.0
2017-Oct-10 12:00N 38°42' W 009°10'0 0.8
2017-Oct-10 11:30N 38°42' W 009°10'1 2.3
2017-Oct-10 11:00N 38°42' W 009°11'1 1.9
2017-Oct-10 10:30N 38°42' W 009°10'0 0.5
2017-Oct-10 10:00N 38°42' W 009°10'1 1.1
2017-Oct-10 09:30N 38°42' W 009°10'0 0.0
2017-Oct-10 09:00N 38°42' W 009°10'0 0.0
2017-Oct-10 08:30N 38°42' W 009°10'0 0.0
2017-Oct-10 08:00N 38°42' W 009°10'0 0.0
2017-Oct-10 07:30N 38°42' W 009°10'0 0.0
2017-Oct-10 07:00N 38°42' W 009°10'0 0.0
2017-Oct-10 06:30N 38°42' W 009°10'0 0.0
2017-Oct-10 06:00N 38°42' W 009°10'0 0.0
2017-Oct-10 05:30N 38°42' W 009°10'0 0.0
2017-Oct-10 05:00N 38°42' W 009°10'0 0.0
2017-Oct-10 04:30N 38°42' W 009°10'0 0.0
2017-Oct-10 04:00N 38°42' W 009°10'0 0.0
2017-Oct-10 03:30N 38°42' W 009°10'0 0.0
2017-Oct-10 03:00N 38°42' W 009°10'0 0.0
2017-Oct-10 02:30N 38°42' W 009°10'0 0.0
2017-Oct-10 02:00N 38°42' W 009°10'0 0.0
2017-Oct-10 01:30N 38°42' W 009°10'0 0.0
2017-Oct-10 01:00N 38°42' W 009°10'0 0.0
2017-Oct-10 00:30N 38°42' W 009°10'0 0.0
2017-Oct-10 00:00N 38°42' W 009°10'0 0.0
2017-Oct-09 23:30N 38°42' W 009°10'0 0.0
2017-Oct-09 23:00N 38°42' W 009°10'0 0.0
2017-Oct-09 22:30N 38°42' W 009°10'0 0.0
2017-Oct-09 22:00N 38°42' W 009°10'0 0.0
2017-Oct-09 21:30N 38°42' W 009°10'0 0.0
2017-Oct-09 21:00N 38°42' W 009°10'0 0.0
2017-Oct-09 20:30N 38°42' W 009°10'0 0.0
2017-Oct-09 20:00N 38°42' W 009°10'0 0.0
2017-Oct-09 19:30N 38°42' W 009°10'0 0.0
2017-Oct-09 19:00N 38°42' W 009°10'0 0.0
2017-Oct-09 18:30N 38°42' W 009°10'0 0.0
2017-Oct-09 18:00N 38°42' W 009°10'0 0.0
2017-Oct-09 17:30N 38°42' W 009°10'0 0.0
2017-Oct-09 17:00N 38°42' W 009°10'0 0.0
2017-Oct-09 16:30N 38°42' W 009°10'0 0.0
2017-Oct-09 16:00N 38°42' W 009°10'0 0.0
2017-Oct-09 15:30N 38°42' W 009°10'0 0.0
2017-Oct-09 15:00N 38°42' W 009°10'0 0.0
2017-Oct-09 14:29N 38°42' W 009°10'0 0.0
2017-Oct-09 14:00N 38°42' W 009°10'0 0.0
2017-Oct-09 13:30N 38°42' W 009°10'0 0.0
2017-Oct-09 13:00N 38°42' W 009°10'0 0.0
2017-Oct-09 12:30N 38°42' W 009°10'0 0.0
2017-Oct-09 12:00N 38°42' W 009°10'0 0.0
2017-Oct-09 11:30N 38°42' W 009°10'0 0.0
2017-Oct-09 11:00N 38°42' W 009°10'0 0.0
2017-Oct-09 10:30N 38°42' W 009°10'0 0.0
2017-Oct-09 10:00N 38°42' W 009°10'0 0.0
2017-Oct-09 09:30N 38°42' W 009°10'0 0.0
2017-Oct-09 09:00N 38°42' W 009°10'0 0.0
2017-Oct-09 08:30N 38°42' W 009°10'0 0.0
2017-Oct-09 08:00N 38°42' W 009°10'0 0.0
2017-Oct-09 07:30N 38°42' W 009°10'0 0.1
2017-Oct-09 07:00N 38°42' W 009°10'1 1.1
2017-Oct-09 06:30N 38°42' W 009°10'1 1.1
2017-Oct-09 06:00N 38°42' W 009°11'1 2.1
2017-Oct-09 05:30N 38°42' W 009°10'0 0.0
2017-Oct-09 05:00N 38°42' W 009°10'1 1.4
2017-Oct-09 04:30N 38°42' W 009°10'0 0.5
2017-Oct-09 04:00N 38°42' W 009°10'0 0.9
2017-Oct-09 03:30N 38°42' W 009°10'0 0.0
2017-Oct-09 03:00N 38°42' W 009°10'0 0.0
2017-Oct-09 02:30N 38°42' W 009°10'0 0.0
2017-Oct-09 02:00N 38°42' W 009°10'0 0.0
2017-Oct-09 01:30N 38°42' W 009°10'0 0.0
2017-Oct-09 01:00N 38°42' W 009°10'0 0.0
2017-Oct-09 00:30N 38°42' W 009°10'0 0.0
2017-Oct-09 00:00N 38°42' W 009°10'0 0.0
2017-Oct-08 23:30N 38°42' W 009°10'0 0.0
2017-Oct-08 23:00N 38°42' W 009°10'0 0.0
2017-Oct-08 22:30N 38°42' W 009°10'0 0.0
2017-Oct-08 22:00N 38°42' W 009°10'0 0.0
2017-Oct-08 21:30N 38°42' W 009°10'0 0.0
2017-Oct-08 21:00N 38°42' W 009°10'0 0.0
2017-Oct-08 20:30N 38°42' W 009°10'0 0.0
2017-Oct-08 20:00N 38°42' W 009°10'0 0.0
2017-Oct-08 19:30N 38°42' W 009°10'0 0.8
2017-Oct-08 19:00N 38°42' W 009°10'0 0.4
2017-Oct-08 18:30N 38°42' W 009°10'2 3.2
2017-Oct-08 18:00N 38°40' W 009°09'0 0.3
2017-Oct-08 17:30N 38°40' W 009°09'0 0.4
2017-Oct-08 17:00N 38°40' W 009°09'1 2.4
2017-Oct-08 16:30N 38°42' W 009°08'1 2.1
2017-Oct-08 16:00N 38°42' W 009°10'0 0.0
2017-Oct-08 15:30N 38°42' W 009°10'0 0.0
2017-Oct-08 15:00N 38°42' W 009°10'0 0.0
2017-Oct-08 14:29N 38°42' W 009°10'0 0.0
2017-Oct-08 14:00N 38°42' W 009°10'0 0.0
2017-Oct-08 13:23N 38°42' W 009°10'0 1.3
2017-Oct-08 13:00N 38°42' W 009°10'0 0.1
2017-Oct-08 12:31N 38°42' W 009°10'1 2.2
2017-Oct-08 12:00N 38°41' W 009°11'2 3.4
2017-Oct-08 11:30N 38°41' W 009°14'2 4.2
2017-Oct-08 11:00N 38°41' W 009°16'2 4.3
2017-Oct-08 10:30N 38°40' W 009°19'2 3.1
2017-Oct-08 10:00N 38°39' W 009°20'2 3.1
2017-Oct-08 09:30N 38°38' W 009°22'2 3.3
2017-Oct-08 09:00N 38°37' W 009°23'2 3.7
2017-Oct-08 08:30N 38°37' W 009°25'1 2.0
2017-Oct-08 08:00N 38°38' W 009°26'0 0.6
2017-Oct-08 07:30N 38°38' W 009°25'1 1.2
2017-Oct-08 07:00N 38°38' W 009°25'0 0.8
2017-Oct-08 06:30N 38°38' W 009°25'1 1.9
2017-Oct-08 06:00N 38°39' W 009°26'1 2.5
2017-Oct-08 05:30N 38°40' W 009°27'1 2.0
2017-Oct-08 05:00N 38°39' W 009°28'2 3.2
2017-Oct-08 04:30N 38°38' W 009°29'2 3.1
2017-Oct-08 04:01N 38°38' W 009°31'2 3.3
2017-Oct-08 03:30N 38°37' W 009°33'1 2.9
2017-Oct-08 03:00N 38°37' W 009°35'2 3.2
2017-Oct-08 02:30N 38°36' W 009°37'2 3.1
2017-Oct-08 02:00N 38°35' W 009°39'1 2.7
2017-Oct-08 01:30N 38°35' W 009°40'1 2.0
2017-Oct-08 01:00N 38°35' W 009°41'2 3.8
2017-Oct-08 00:31N 38°34' W 009°44'2 3.5
2017-Oct-08 00:00N 38°33' W 009°45'  

Dump ship's entire track history